METAR stanice u blizini

 

LYBE - Beograd / Surčin, Srbija
Ažurirano: 03/06/2020 08:00
Vedro
Vedro
 Pravac vetra JJZ
Vetar: JJZ 15 km/h
Temperatura: 13°C
Tačka rose: 11°C
Vlažnost: 88%
Pritisak: 1009 hPa
Pregled: Vedro
Vidljivost: greater than 10 km
2020/06/03 06:00 LYBE 030600Z 20008KT CAVOK 13/11 Q1009 NOSIG
LYBT - Beograd / Batajnica, Srbija
Ažurirano: 03/06/2020 08:00
Vedro
Vedro
 Pravac vetra JJZ
Vetar: JJZ 13 km/h
Temperatura: 13°C
Tačka rose: 12°C
Vlažnost: 94%
Pritisak: 1008 hPa
Pregled: Vedro
Vidljivost: greater than 10 km
2020/06/03 06:00 LYBT 030600Z 20007KT 170V230 CAVOK 13/12 Q1008 NOSIG
LYVR - Vršac, Srbija
Ažurirano: 03/06/2020 08:00
Few Clouds
Few Clouds
 Pravac vetra JJI
Vetar: JJI 19 km/h
Temperatura: 13°C
Tačka rose: 11°C
Vlažnost: 88%
Pritisak: 1008 hPa
Oblaci: Few Clouds
Vidljivost: 10 km
Cloud details: Few Clouds 701 m
2020/06/03 06:00 LYVR 030600Z 16010KT 140V200 9999 FEW023 13/11 Q1008 NOSIG
 
LYKV - Lađevci, Srbija
Ažurirano: 03/06/2020 08:00
Partly Cloudy
Partly Cloudy
 Pravac vetra calm
Vetar: Tišina
Temperatura: 12°C
Tačka rose: 12°C
Vlažnost: 100%
Pritisak: 1010 hPa
Oblaci: Partly Cloudy
Vidljivost: 10 km
Cloud details: Few Clouds 152 m
Partly Cloudy 823 m
2020/06/03 06:00 LYKV 030600Z 00000KT 9999 FEW005 SCT027 12/12 Q1010 NOSIG
LYNI - Niš, Srbija
Ažurirano: 03/06/2020 08:00
Partly Cloudy
Partly Cloudy
 Pravac vetra varies
Vetar: varies 6 km/h
Temperatura: 11°C
Tačka rose: 8°C
Vlažnost: 82%
Pritisak: 1011 hPa
Oblaci: Partly Cloudy
Vidljivost: 10 km
Cloud details: Few Clouds 305 m
Partly Cloudy 1219 m
2020/06/03 06:00 LYNI 030600Z VRB03KT 9999 FEW010 SCT040 11/08 Q1011 NOSIG
BKPR - Priština, Srbija
Ažurirano: 03/06/2020 08:30
Magla, Delimično oblačno
Magla, Delimično oblačno
 Pravac vetra varies
Vetar: varies 2 km/h
Temperatura: 8°C
Tačka rose: 7°C
Vlažnost: 93%
Pritisak: 1011 hPa
Pregled: Magla
Oblaci: Partly Cloudy
Vidljivost: 0 km
Cloud details: Partly Cloudy 366 m
Partly Cloudy 2438 m
2020/06/03 06:30 BKPR 030630Z VRB01KT 0400 FG SCT012 SCT080 08/07 Q1011 BECMG 5000 BR
 
LHPP - Pecs / Pogany, Hungary
Ažurirano: 03/06/2020 07:45
Vedro
Vedro
 Pravac vetra ZSZ
Vetar: ZSZ 13 km/h
Temperatura: 15°C
Tačka rose: 10°C
Vlažnost: 72%
Pritisak: 1008 hPa
Pregled: Vedro
Vidljivost: greater than 10 km
2020/06/03 05:45 LHPP 030545Z 30007KT CAVOK 15/10 Q1008
LHUD - Szeged, Hungary
Ažurirano: 04/07/2019 01:45
NOT Current
Vedro
Vedro
 Pravac vetra S
Vetar: S 7 km/h
Temperatura: 18°C
Tačka rose: 13°C
Vlažnost: 73%
Pritisak: 1019 hPa
Pregled: Vedro
Vidljivost: greater than 10 km
2019/07/03 23:45 LHUD 032345Z 35004KT CAVOK 18/13 Q1019
LRTR - Timisoara, Romania
Ažurirano: 03/06/2020 08:00
Few Clouds
Few Clouds
 Pravac vetra J
Vetar: J 15 km/h
Temperatura: 13°C
Tačka rose: 11°C
Vlažnost: 88%
Pritisak: 1008 hPa
Oblaci: Few Clouds
Vidljivost: 10 km
Cloud details: Few Clouds 244 m
2020/06/03 06:00 LRTR 030600Z 17008KT 140V210 9999 FEW008 13/11 Q1008 NOSIG
 
LRCV - Craiova, Romania
Ažurirano: 03/06/2020 08:00
Few Clouds
Few Clouds
 Pravac vetra JZ
Vetar: JZ 9 km/h
Temperatura: 12°C
Tačka rose: 9°C
Vlažnost: 82%
Pritisak: 1008 hPa
Oblaci: Few Clouds
Vidljivost: 10 km
Cloud details: Few Clouds 914 m
2020/06/03 06:00 LRCV 030600Z 23005KT 180V250 9999 FEW030 12/09 Q1008
LBSF - Sofia, Bulgaria
Ažurirano: 03/06/2020 08:00
Partly Cloudy
Partly Cloudy
 Pravac vetra ISI
Vetar: ISI 6 km/h
Temperatura: 12°C
Tačka rose: 7°C
Vlažnost: 72%
Pritisak: 1010 hPa
Oblaci: Partly Cloudy
Vidljivost: 10 km
Cloud details: Few Clouds 1067 m
Partly Cloudy 2012 m
2020/06/03 06:00 LBSF 030600Z 06003KT 350V150 9999 FEW035 SCT066 12/07 Q1010 NOSIG
LWSK - Skoplje, Makedonija
Ažurirano: 03/06/2020 08:00
Vedro
Vedro
 Pravac vetra calm
Vetar: Tišina
Temperatura: 11°C
Tačka rose: 7°C
Vlažnost: 77%
Pritisak: 1011 hPa
Pregled: Vedro
Vidljivost: greater than 10 km
2020/06/03 06:00 LWSK 030600Z 00000KT CAVOK 11/07 Q1011 NOSIG
 
LYPG - Podgorica, Crna Gora
Ažurirano: 03/06/2020 08:00
Few Clouds
Few Clouds
 Pravac vetra SSZ
Vetar: SSZ 6 km/h
Temperatura: 17°C
Tačka rose: 7°C
Vlažnost: 52%
Pritisak: 1010 hPa
Oblaci: Few Clouds
Vidljivost: 10 km
Cloud details: Few Clouds 1219 m
2020/06/03 06:00 LYPG 030600Z 34003KT 290V050 9999 FEW040 17/07 Q1010 NOSIG
LQSA - Sarajevo, Bosna i Hercegovina
Ažurirano: 03/06/2020 08:00
Partly Cloudy
Partly Cloudy
 Pravac vetra varies
Vetar: varies 2 km/h
Temperatura: 10°C
Tačka rose: 10°C
Vlažnost: 100%
Pritisak: 1011 hPa
Oblaci: Partly Cloudy
Vidljivost: 10 km
Cloud details: Few Clouds 305 m
Partly Cloudy 1829 m
2020/06/03 06:00 LQSA 030600Z VRB01KT 9999 FEW010 SCT060 10/10 Q1011 NOSIG
LDOS - Osijek, Hrvatksa
Ažurirano: 03/06/2020 08:00
Few Clouds
Few Clouds
 Pravac vetra Z
Vetar: Z 20 km/h
Temperatura: 15°C
Tačka rose: 11°C
Vlažnost: 77%
Pritisak: 1008 hPa
Oblaci: Few Clouds
Vidljivost: 10 km
Cloud details: Few Clouds 1433 m
2020/06/03 06:00 LDOS 030600Z 28011KT 9999 FEW047 15/11 Q1008